Tuesday, October 21, 2014
02:19 UTC
  |  Log In   |  Register Free
Airport Search:

New River Valley Airport
(KPSK)

New River Valley Airport Diagram
No Airport Diagram Available

FAA data valid effective September 18, 2014 - November 13, 2014 (unless otherwise noted).

 
 
 
 
 
 
 
 
 
 
 
 
 
 

Current Aviation Weather for New River Valley Airport (KPSK)

The most recent METAR observation for KPSK was updated at: 0132
METAR Summary (Translated METAR)
KPSK
210115Z AUTO 24004KT 10SM OVC090 12/09 A2999 RMK AO2 T01200089
KBCB
210055Z AUTO 00000KT 10SM BKN090 BKN110 11/09 A2999 RMK AO2
(13.6 nm NE from KPSK)
KHLX
210115Z AUTO 19005KT 10SM BKN080 12/08 A2999 RMK AO2 T01200083
(23.3 nm SW from KPSK)
TAF Summary (Translated TAF)
KBCB
(13.6 nm NE from KPSK)
202013Z 2020/2118 26007KT P6SM SCT060 BKN150 FM202100 22010KT P6SM SCT050 OVC110 TEMPO 2022/2024 6SM -SHRA SCT035 OVC050 FM210400 VRB03KT P6SM VCSH SCT015 BKN030 TEMPO 2109/2112 5SM BR BKN015 FM211500 29008G16KT P6SM VCSH BKN025
  Airport Weather Conditions for KPSK

 Current Weather at PSK
55° F
Overcast
Southwest winds at 4.6 mph
PSK NOAA Radar

Pressure: 30.00 in
Humidity: 77%
Wind: Southwest at 4.6 MPH (4 KT)
Dew Point: 47.8°F
Visibility: 10.00 mi


Airport Weather Forecast for KPSK

Translated METAR and TAF for KPSK
Translated METAR for KPSK (0214 UTC 21 October 2014)
found at http://aviationweather.gov/adds/metars/
 
METAR text: KPSK 210155Z AUTO 23003KT 10SM OVC090 12/09 A3000 RMK AO2 T01200091
Conditions at: KPSK (DUBLIN/NEW RIV , VA, US) observed 0155 UTC 21 October 2014
Temperature: 12.0°C (54°F)
Dewpoint: 9.1°C (48°F) [RH = 82%]
Pressure (altimeter): 30.00 inches Hg (1016.0 mb)
Winds: from the SW (230 degrees) at 3 MPH (3 knots; 1.6 m/s)
Visibility: 10 or more miles (16+ km)
Ceiling: 9000 feet AGL
Clouds: overcast cloud deck at 9000 feet AGL
Weather: automated observation with no human augmentation;
there may or may not be significant weather present at this time
Translated TAF for KPSK

There is no translated TAF available for this airport

Find All Airport Services Find A Hotel Find A Rental Car Find A Golf Course Find A Restaurant $100 Hamburger



FBO's on the Field
FBO Company Facility Photos Services Transportation Aviation Fuel Prices: Prices include tax
Catering Weather Repair Courtesy Rental Type 100LL JetA JetA+ MOGAS 8087
 
New River Valley Airport

This FBO has not yet been rated
FS:Avfuel
Last Updated: Oct-16
Login to update fuel prices
SS:
Contact New River Valley AirportMore FBO Information
 
Add another FBO Facility Photos Catering Weather Repair Courtesy Rental Type 100LL JetA JetA+ MOGAS 8087
Services Transportation Aviation Fuel Prices: Prices include tax


model-print
model-print
model-print
model-print